createdAt,value
2019-03-08T00:00:01.738Z,72.65
2019-03-08T00:02:33.808Z,73.06
2019-03-08T00:05:04.243Z,74.36
2019-03-08T00:07:34.431Z,74.70
2019-03-08T00:10:04.738Z,75.45
2019-03-08T00:12:36.348Z,75.68
2019-03-08T00:15:06.857Z,76.04
2019-03-08T00:17:37.002Z,75.74
2019-03-08T00:20:08.519Z,75.52
2019-03-08T00:22:39.251Z,76.00
2019-03-08T00:25:09.616Z,74.59
2019-03-08T00:27:39.777Z,73.80
2019-03-08T00:30:09.989Z,73.65
2019-03-08T00:32:40.142Z,73.56
2019-03-08T00:35:10.349Z,73.46
2019-03-08T00:37:42.578Z,72.91
2019-03-08T00:40:12.722Z,72.73
2019-03-08T00:42:42.886Z,71.85
2019-03-08T00:45:18.825Z,71.99
2019-03-08T00:47:49.109Z,71.93
2019-03-08T00:50:19.311Z,71.67
2019-03-08T00:52:52.058Z,71.16
2019-03-08T00:55:22.527Z,71.18
2019-03-08T00:57:52.871Z,71.04
2019-03-08T01:00:25.869Z,71.09
2019-03-08T01:02:56.084Z,70.32
2019-03-08T01:05:26.169Z,70.71
2019-03-08T01:07:56.727Z,71.02
2019-03-08T01:10:28.307Z,70.81
2019-03-08T01:13:01.595Z,70.96
2019-03-08T01:15:35.755Z,70.97
2019-03-08T01:18:06.201Z,70.73
2019-03-08T01:20:36.407Z,71.30
2019-03-08T01:23:07.146Z,71.21
2019-03-08T01:25:37.543Z,71.73
2019-03-08T01:28:12.522Z,71.97
2019-03-08T01:30:43.646Z,72.43
2019-03-08T01:33:15.922Z,72.30
2019-03-08T01:35:46.078Z,72.53
2019-03-08T01:38:16.248Z,72.59
2019-03-08T01:40:46.486Z,72.90
2019-03-08T01:43:19.676Z,73.37
2019-03-08T01:45:50.007Z,73.41
2019-03-08T01:48:20.200Z,73.32
2019-03-08T01:50:50.303Z,73.29
2019-03-08T01:53:20.608Z,72.97
2019-03-08T01:55:51.127Z,73.21
2019-03-08T01:58:23.718Z,73.29
2019-03-08T02:00:53.957Z,74.24
2019-03-08T02:03:24.242Z,74.47
2019-03-08T02:05:54.639Z,74.71
2019-03-08T02:08:24.767Z,74.77
2019-03-08T02:10:54.918Z,75.27
2019-03-08T02:13:25.182Z,74.88
2019-03-08T02:15:55.420Z,75.19
2019-03-08T02:18:25.791Z,75.44
2019-03-08T02:21:06.250Z,75.55
2019-03-08T02:23:27.940Z,75.84
2019-03-08T02:25:58.248Z,75.67
2019-03-08T02:28:28.392Z,75.87
2019-03-08T02:30:58.636Z,76.34
2019-03-08T02:33:28.785Z,76.54
2019-03-08T02:35:59.041Z,76.51
2019-03-08T02:38:31.627Z,76.82
2019-03-08T02:41:02.020Z,77.23
2019-03-08T02:43:34.231Z,77.24
2019-03-08T02:46:06.165Z,77.36
2019-03-08T02:48:36.378Z,77.36
2019-03-08T02:51:08.635Z,77.30
2019-03-08T02:53:40.246Z,77.34
2019-03-08T02:56:12.043Z,77.68
2019-03-08T02:58:42.188Z,77.83
2019-03-08T03:01:12.384Z,77.90
2019-03-08T03:03:42.809Z,78.12
2019-03-08T03:06:12.961Z,78.18
2019-03-08T03:08:44.278Z,78.28
2019-03-08T03:11:14.421Z,78.36
2019-03-08T03:13:44.588Z,78.27
2019-03-08T03:16:14.713Z,78.53
2019-03-08T03:18:47.711Z,78.66
2019-03-08T03:21:18.027Z,78.81
2019-03-08T03:23:48.374Z,78.81
2019-03-08T03:26:18.704Z,78.80
2019-03-08T03:28:48.939Z,78.62
2019-03-08T03:31:19.430Z,79.01
2019-03-08T03:33:49.890Z,79.36
2019-03-08T03:36:20.098Z,79.84
2019-03-08T03:38:50.500Z,80.04
2019-03-08T03:41:21.071Z,80.15
2019-03-08T03:43:51.538Z,79.98
2019-03-08T03:46:22.085Z,79.92
2019-03-08T03:48:52.211Z,80.11
2019-03-08T03:51:26.156Z,79.66
2019-03-08T03:53:57.253Z,79.83
2019-03-08T03:56:27.569Z,79.48
2019-03-08T03:58:57.893Z,79.20
2019-03-08T04:01:35.549Z,79.30
2019-03-08T04:04:06.084Z,79.51
2019-03-08T04:06:36.931Z,80.02
2019-03-08T04:09:15.024Z,80.15
2019-03-08T04:11:45.309Z,80.48
2019-03-08T04:14:15.490Z,80.98
2019-03-08T04:16:46.988Z,81.62
2019-03-08T04:19:17.162Z,81.81
2019-03-08T04:21:47.433Z,82.27
2019-03-08T04:24:19.021Z,82.56
2019-03-08T04:26:49.323Z,82.61
2019-03-08T04:29:19.747Z,82.93
2019-03-08T04:31:50.989Z,83.37
2019-03-08T04:34:21.108Z,83.39
2019-03-08T04:36:51.260Z,83.56
2019-03-08T04:39:21.712Z,83.81
2019-03-08T04:41:53.322Z,83.60
2019-03-08T04:44:23.614Z,83.34
2019-03-08T04:46:54.707Z,83.31
2019-03-08T04:49:25.132Z,83.29
2019-03-08T04:51:56.338Z,83.27
2019-03-08T04:54:26.647Z,82.95
2019-03-08T04:56:56.784Z,82.93
2019-03-08T04:59:26.899Z,83.18
2019-03-08T05:01:57.144Z,83.02
2019-03-08T05:04:27.442Z,82.71
2019-03-08T05:06:58.297Z,82.88
2019-03-08T05:09:28.575Z,83.33
2019-03-08T05:11:58.918Z,84.14
2019-03-08T05:14:30.188Z,84.12
2019-03-08T05:17:00.436Z,85.30
2019-03-08T05:19:31.154Z,86.03
2019-03-08T05:22:01.573Z,86.65
2019-03-08T05:24:32.679Z,87.95
2019-03-08T05:27:03.137Z,87.87
2019-03-08T05:29:35.605Z,88.51
2019-03-08T05:32:06.189Z,89.22
2019-03-08T05:34:39.017Z,88.76
2019-03-08T05:37:09.609Z,89.60
2019-03-08T05:39:41.000Z,89.41
2019-03-08T05:42:11.161Z,89.13
2019-03-08T05:44:41.549Z,89.41
2019-03-08T05:47:11.730Z,90.03
2019-03-08T05:49:41.870Z,89.45
2019-03-08T05:52:12.486Z,89.74
2019-03-08T05:54:42.739Z,89.89
2019-03-08T05:57:13.033Z,90.14
2019-03-08T05:59:46.095Z,89.87
2019-03-08T06:02:19.344Z,89.79
2019-03-08T06:04:49.498Z,89.73
2019-03-08T06:07:19.866Z,89.26
2019-03-08T06:09:50.095Z,89.25
2019-03-08T06:12:20.529Z,89.28
2019-03-08T06:14:53.209Z,88.54
2019-03-08T06:17:23.501Z,89.16
2019-03-08T06:19:53.766Z,89.28
2019-03-08T06:22:26.070Z,89.32
2019-03-08T06:24:56.203Z,89.20
2019-03-08T06:27:26.456Z,88.84
2019-03-08T06:29:56.744Z,89.31
2019-03-08T06:32:30.003Z,88.62
2019-03-08T06:35:00.366Z,88.55
2019-03-08T06:37:31.080Z,87.80
2019-03-08T06:40:01.291Z,87.28
2019-03-08T06:42:31.507Z,85.98
2019-03-08T06:45:01.819Z,85.88
2019-03-08T06:47:32.453Z,85.13
2019-03-08T06:50:03.661Z,84.87
2019-03-08T06:52:33.947Z,84.34
2019-03-08T06:55:04.375Z,84.47
2019-03-08T06:57:39.168Z,84.50
2019-03-08T07:00:25.210Z,83.28
2019-03-08T07:02:58.754Z,83.62
2019-03-08T07:05:31.780Z,82.54
2019-03-08T07:08:05.582Z,82.99
2019-03-08T07:10:35.789Z,81.81
2019-03-08T07:13:06.168Z,80.40
2019-03-08T07:15:36.521Z,79.67
2019-03-08T07:18:12.935Z,79.24
2019-03-08T07:20:49.493Z,78.77
2019-03-08T07:23:39.136Z,77.92
2019-03-08T07:26:40.913Z,78.34
2019-03-08T07:29:16.053Z,78.06
2019-03-08T07:32:04.293Z,78.17
2019-03-08T07:34:52.207Z,77.95
2019-03-08T07:37:40.331Z,78.28
2019-03-08T07:40:29.494Z,78.71
2019-03-08T07:43:27.975Z,78.08
2019-03-08T07:46:16.560Z,78.28
2019-03-08T07:49:08.397Z,77.86
2019-03-08T07:52:00.519Z,77.01
2019-03-08T07:54:55.567Z,76.36
2019-03-08T07:57:58.956Z,75.72
2019-03-08T08:00:48.095Z,73.06
2019-03-08T08:03:32.575Z,72.30
2019-03-08T08:06:11.458Z,70.37
2019-03-08T08:09:00.638Z,68.68
2019-03-08T08:12:00.813Z,67.00
2019-03-08T08:14:50.330Z,66.48
2019-03-08T08:17:48.814Z,67.69
2019-03-08T08:20:43.887Z,66.18
2019-03-08T08:23:39.462Z,64.90
2019-03-08T08:26:26.158Z,64.73
2019-03-08T08:29:10.334Z,65.00
2019-03-08T08:32:08.633Z,66.37
2019-03-08T08:35:04.132Z,66.35
2019-03-08T08:38:02.803Z,66.92
2019-03-08T08:40:52.368Z,68.03
2019-03-08T08:43:31.453Z,67.95
2019-03-08T08:46:32.821Z,67.54
2019-03-08T08:49:17.850Z,68.04
2019-03-08T08:52:10.188Z,66.89
2019-03-08T08:55:02.939Z,65.16
2019-03-08T08:57:51.070Z,64.34
2019-03-08T09:00:42.859Z,64.49
2019-03-08T09:03:44.726Z,65.33
2019-03-08T09:06:32.782Z,64.89
2019-03-08T09:09:24.532Z,64.65
2019-03-08T09:12:12.749Z,63.97
2019-03-08T09:14:57.570Z,65.22
2019-03-08T09:17:38.336Z,64.83
2019-03-08T09:20:39.974Z,64.11
2019-03-08T09:23:23.111Z,61.58
2019-03-08T09:26:09.864Z,60.03
2019-03-08T09:28:51.079Z,57.84
2019-03-08T09:31:41.178Z,53.32
2019-03-08T09:34:30.563Z,51.01
2019-03-08T09:37:26.480Z,52.23
2019-03-08T09:40:18.958Z,55.29
2019-03-08T09:43:15.282Z,56.95
2019-03-08T09:46:05.219Z,55.76
2019-03-08T09:48:48.942Z,54.98
2019-03-08T09:51:47.655Z,52.58
2019-03-08T09:54:25.823Z,50.39
2019-03-08T09:57:17.457Z,45.50
2019-03-08T10:00:16.292Z,40.81
2019-03-08T10:03:11.487Z,40.81
2019-03-08T10:06:03.900Z,43.81
2019-03-08T10:08:52.884Z,46.52
2019-03-08T10:11:30.368Z,40.15
2019-03-08T10:14:33.929Z,40.77
2019-03-08T10:17:23.629Z,38.32
2019-03-08T10:20:22.090Z,42.80
2019-03-08T10:23:19.685Z,47.50
2019-03-08T10:26:09.376Z,53.24
2019-03-08T10:28:57.306Z,56.57
2019-03-08T10:31:35.294Z,50.33
2019-03-08T10:34:23.416Z,48.64
2019-03-08T10:37:20.440Z,48.20
2019-03-08T10:40:10.098Z,43.88
2019-03-08T10:43:03.313Z,37.93
2019-03-08T10:45:44.128Z,35.04
2019-03-08T10:48:25.972Z,36.04
2019-03-08T10:51:18.433Z,40.36
2019-03-08T10:54:24.032Z,42.53
2019-03-08T10:57:13.539Z,44.26
2019-03-08T11:00:02.917Z,40.46
2019-03-08T11:02:53.486Z,43.41
2019-03-08T11:05:35.095Z,44.34
2019-03-08T11:08:29.954Z,37.28
2019-03-08T11:11:24.100Z,32.74
2019-03-08T11:14:20.215Z,30.17
2019-03-08T11:17:07.022Z,30.30
2019-03-08T11:19:55.153Z,31.89
2019-03-08T11:22:35.200Z,29.27
2019-03-08T11:25:24.581Z,29.39
2019-03-08T11:28:23.458Z,28.88
2019-03-08T11:31:16.434Z,27.67
2019-03-08T11:33:57.634Z,27.20
2019-03-08T11:36:39.308Z,29.32
2019-03-08T11:39:46.092Z,34.43
2019-03-08T11:42:36.476Z,35.89
2019-03-08T11:45:16.983Z,38.32
2019-03-08T11:47:56.099Z,40.98
2019-03-08T11:50:54.544Z,42.96
2019-03-08T11:53:59.444Z,38.83
2019-03-08T11:57:03.776Z,31.66
2019-03-08T11:59:52.019Z,31.09
2019-03-08T12:02:39.874Z,35.10
2019-03-08T12:05:41.777Z,37.03
2019-03-08T12:08:39.882Z,33.84
2019-03-08T12:11:30.622Z,31.92
2019-03-08T12:14:29.187Z,30.16
2019-03-08T12:17:18.254Z,32.21
2019-03-08T12:19:56.980Z,32.32
2019-03-08T12:22:46.146Z,34.63
2019-03-08T12:25:37.815Z,35.23
2019-03-08T12:28:30.358Z,37.60
2019-03-08T12:31:19.864Z,41.55
2019-03-08T12:34:08.905Z,41.55
2019-03-08T12:36:57.055Z,41.01
2019-03-08T12:39:39.080Z,41.76
2019-03-08T12:42:46.802Z,42.71
2019-03-08T12:45:34.779Z,42.30
2019-03-08T12:48:42.802Z,42.11
2019-03-08T12:51:41.347Z,42.34
2019-03-08T12:54:29.700Z,42.27
2019-03-08T12:57:12.981Z,39.89
2019-03-08T13:00:02.196Z,38.33
2019-03-08T13:02:42.321Z,40.18
2019-03-08T13:05:34.418Z,42.27
2019-03-08T13:08:25.895Z,43.24
2019-03-08T13:10:58.780Z,43.14
2019-03-08T13:13:29.207Z,45.01
2019-03-08T13:15:59.827Z,43.72
2019-03-08T13:18:30.055Z,44.68
2019-03-08T13:21:00.211Z,44.56
2019-03-08T13:23:31.638Z,44.71
2019-03-08T13:26:02.058Z,42.11
2019-03-08T13:28:32.479Z,31.94
2019-03-08T13:31:02.999Z,31.94
2019-03-08T13:33:34.350Z,35.48
2019-03-08T13:36:04.814Z,34.23
2019-03-08T13:38:35.255Z,31.06
2019-03-08T13:41:05.646Z,32.87
2019-03-08T13:43:35.816Z,30.99
2019-03-08T13:46:06.072Z,32.10
2019-03-08T13:48:36.334Z,28.84
2019-03-08T13:51:06.609Z,29.12
2019-03-08T13:53:37.213Z,29.75
2019-03-08T13:56:07.758Z,30.81
2019-03-08T13:58:37.926Z,30.17
2019-03-08T14:01:08.089Z,28.13
2019-03-08T14:03:38.450Z,28.94
2019-03-08T14:06:11.475Z,29.61
2019-03-08T14:08:44.114Z,30.19
2019-03-08T14:11:14.905Z,31.44
2019-03-08T14:13:45.355Z,32.43
2019-03-08T14:16:17.153Z,35.01
2019-03-08T14:18:47.456Z,34.36
2019-03-08T14:21:17.809Z,33.71
2019-03-08T14:23:48.330Z,32.24
2019-03-08T14:26:18.770Z,33.42
2019-03-08T14:28:49.232Z,32.57
2019-03-08T14:31:45.321Z,31.46
2019-03-08T14:34:17.853Z,29.54
2019-03-08T14:36:49.860Z,27.96
2019-03-08T14:39:20.873Z,28.92
2019-03-08T14:42:03.691Z,30.38
2019-03-08T14:44:45.900Z,31.28
2019-03-08T14:47:29.323Z,32.66
2019-03-08T14:49:59.229Z,31.61
2019-03-08T14:52:30.080Z,34.01
2019-03-08T14:55:00.484Z,35.97
2019-03-08T14:57:30.833Z,36.11
2019-03-08T15:00:02.367Z,36.51
2019-03-08T15:02:32.887Z,37.20
2019-03-08T15:05:10.897Z,37.93
2019-03-08T15:07:37.330Z,38.21
2019-03-08T15:10:09.295Z,38.72
2019-03-08T15:12:48.332Z,38.15
2019-03-08T15:15:12.837Z,38.54
2019-03-08T15:17:44.726Z,38.12
2019-03-08T15:20:16.967Z,38.42
2019-03-08T15:22:48.546Z,38.91
2019-03-08T15:25:20.895Z,38.91
2019-03-08T15:27:54.093Z,38.74
2019-03-08T15:30:25.863Z,39.49
2019-03-08T15:32:56.031Z,41.40
2019-03-08T15:35:28.210Z,40.74
2019-03-08T15:37:58.374Z,39.96
2019-03-08T15:40:33.429Z,39.57
2019-03-08T15:43:04.041Z,40.44
2019-03-08T15:45:34.579Z,39.35
2019-03-08T15:48:04.785Z,38.50
2019-03-08T15:50:35.117Z,40.52
2019-03-08T15:53:07.001Z,40.11
2019-03-08T15:55:37.278Z,39.83
2019-03-08T15:58:07.442Z,40.13
2019-03-08T16:00:37.940Z,40.67
2019-03-08T16:03:08.219Z,40.76
2019-03-08T16:05:38.392Z,41.59
2019-03-08T16:08:11.455Z,42.21
2019-03-08T16:10:41.990Z,42.88
2019-03-08T16:13:12.606Z,43.66
2019-03-08T16:15:43.654Z,43.27
2019-03-08T16:18:14.140Z,43.83
2019-03-08T16:20:44.422Z,43.56
2019-03-08T16:23:14.696Z,43.99
2019-03-08T16:25:53.046Z,43.96
2019-03-08T16:28:23.408Z,43.92
2019-03-08T16:31:00.005Z,44.54
2019-03-08T16:33:41.535Z,44.36
2019-03-08T16:36:29.333Z,44.00
2019-03-08T16:39:06.932Z,45.07
2019-03-08T16:41:45.215Z,45.82
2019-03-08T16:44:34.826Z,45.98
2019-03-08T16:47:13.756Z,45.63
2019-03-08T16:49:53.867Z,46.60
2019-03-08T16:52:46.692Z,47.36
2019-03-08T16:55:36.853Z,47.60
2019-03-08T16:58:41.461Z,47.58
2019-03-08T17:01:38.773Z,48.78
2019-03-08T17:04:34.207Z,48.73
2019-03-08T17:07:23.970Z,48.63
2019-03-08T17:10:13.596Z,48.35
2019-03-08T17:13:06.395Z,48.67
2019-03-08T17:15:58.889Z,48.91
2019-03-08T17:18:51.139Z,50.13
2019-03-08T17:21:46.107Z,49.07
2019-03-08T17:24:25.510Z,51.17
2019-03-08T17:27:17.817Z,51.68
2019-03-08T17:30:10.012Z,52.27
2019-03-08T17:33:07.746Z,52.21
2019-03-08T17:36:12.238Z,52.89
2019-03-08T17:39:01.485Z,55.07
2019-03-08T17:42:01.343Z,56.72
2019-03-08T17:50:59.731Z,58.56
2019-03-08T17:54:01.689Z,58.61
2019-03-08T17:56:47.949Z,59.41
2019-03-08T17:59:46.975Z,59.56
2019-03-08T18:02:32.006Z,59.89
2019-03-08T18:05:23.004Z,60.06
2019-03-08T18:08:21.816Z,60.28
2019-03-08T18:11:16.299Z,60.88
2019-03-08T18:13:55.027Z,61.37
2019-03-08T18:16:44.277Z,62.21
2019-03-08T18:19:42.390Z,62.58
2019-03-08T18:22:21.622Z,63.04
2019-03-08T18:25:26.438Z,63.72
2019-03-08T18:28:14.899Z,64.17
2019-03-08T18:30:54.406Z,64.47
2019-03-08T18:33:43.789Z,64.45
2019-03-08T18:36:34.513Z,64.33
2019-03-08T18:39:10.753Z,65.03
2019-03-08T18:42:00.152Z,65.42
2019-03-08T18:44:52.247Z,66.07
2019-03-08T18:47:50.525Z,66.21
2019-03-08T18:50:43.079Z,66.34
2019-03-08T18:53:35.628Z,67.81
2019-03-08T18:56:22.555Z,68.13
2019-03-08T18:59:12.018Z,67.97
2019-03-08T19:02:10.834Z,67.26
2019-03-08T19:05:06.139Z,66.96
2019-03-08T19:07:54.458Z,68.58
2019-03-08T19:10:50.085Z,68.07
2019-03-08T19:13:35.485Z,69.08
2019-03-08T19:16:29.274Z,69.09
2019-03-08T19:19:13.111Z,68.68
2019-03-08T19:22:26.146Z,68.62
2019-03-08T19:25:14.688Z,69.03
2019-03-08T19:28:04.249Z,69.32
2019-03-08T19:30:59.733Z,69.75
2019-03-08T19:33:52.538Z,69.99
2019-03-08T19:36:46.996Z,69.79
2019-03-08T19:39:36.325Z,70.15
2019-03-08T19:42:25.711Z,70.22
2019-03-08T19:45:05.596Z,71.57
2019-03-08T19:47:55.219Z,71.67
2019-03-08T19:50:39.146Z,71.39
2019-03-08T19:53:20.808Z,71.65
2019-03-08T19:56:01.790Z,72.05
2019-03-08T19:59:09.184Z,72.29
2019-03-08T20:02:09.022Z,73.29
2019-03-08T20:05:01.154Z,74.09
2019-03-08T20:07:49.319Z,73.86
2019-03-08T20:10:37.616Z,74.00
2019-03-08T20:13:30.381Z,74.66
2019-03-08T20:16:25.870Z,74.66
2019-03-08T20:19:21.377Z,75.37
2019-03-08T20:22:03.046Z,74.80
2019-03-08T20:24:59.500Z,74.75
2019-03-08T20:27:48.854Z,75.32
2019-03-08T20:30:59.708Z,75.62
2019-03-08T20:33:45.220Z,75.32
2019-03-08T20:36:39.497Z,75.33
2019-03-08T20:39:27.362Z,75.47
2019-03-08T20:42:24.832Z,75.57
2019-03-08T20:45:15.976Z,75.27
2019-03-08T20:47:46.755Z,75.30
2019-03-08T20:50:20.043Z,76.21
2019-03-08T20:52:50.696Z,77.26
2019-03-08T20:55:20.883Z,77.02
2019-03-08T20:57:51.342Z,76.46
2019-03-08T21:00:23.762Z,76.08
2019-03-08T21:02:54.413Z,76.39
2019-03-08T21:05:25.086Z,76.47
2019-03-08T21:07:56.972Z,76.77
2019-03-08T21:10:27.359Z,76.86
2019-03-08T21:13:00.811Z,76.51
2019-03-08T21:15:31.407Z,76.64
2019-03-08T21:18:01.783Z,77.08
2019-03-08T21:20:32.029Z,77.00
2019-03-08T21:23:02.881Z,77.30
2019-03-08T21:25:33.245Z,77.80
2019-03-08T21:28:03.518Z,78.04
2019-03-08T21:30:33.818Z,77.88
2019-03-08T21:33:04.444Z,77.67
2019-03-08T21:35:35.249Z,77.93
2019-03-08T21:38:05.715Z,77.88
2019-03-08T21:40:36.073Z,77.91
2019-03-08T21:43:09.510Z,77.73
2019-03-08T21:45:39.708Z,77.79
2019-03-08T21:48:09.959Z,78.27
2019-03-08T21:50:40.320Z,78.46
2019-03-08T21:53:11.239Z,78.42
2019-03-08T21:55:41.450Z,78.56
2019-03-08T21:58:12.254Z,79.07
2019-03-08T22:00:42.647Z,78.65
2019-03-08T22:03:12.886Z,78.90
2019-03-08T22:05:43.359Z,78.82
2019-03-08T22:08:17.750Z,79.47
2019-03-08T22:10:53.931Z,79.82
2019-03-08T22:13:24.440Z,79.42
2019-03-08T22:15:57.543Z,79.73
2019-03-08T22:18:28.065Z,78.99
2019-03-08T22:20:58.607Z,79.40
2019-03-08T22:23:28.993Z,79.56
2019-03-08T22:25:59.246Z,79.75
2019-03-08T22:28:29.609Z,79.64
2019-03-08T22:30:59.865Z,79.48
2019-03-08T22:33:30.045Z,79.55
2019-03-08T22:36:00.194Z,80.13
2019-03-08T22:38:30.425Z,80.65
2019-03-08T22:41:00.894Z,80.38
2019-03-08T22:43:31.658Z,80.03
2019-03-08T22:46:02.142Z,79.90
2019-03-08T22:48:32.542Z,80.39
2019-03-08T22:51:04.327Z,80.52
2019-03-08T22:53:34.535Z,80.68
2019-03-08T22:56:06.220Z,79.95
2019-03-08T22:58:37.635Z,80.36
2019-03-08T23:01:12.818Z,79.75
2019-03-08T23:03:43.179Z,80.48
2019-03-08T23:06:16.091Z,80.60
2019-03-08T23:08:46.523Z,81.09
2019-03-08T23:11:17.161Z,80.81
2019-03-08T23:13:47.527Z,80.38
2019-03-08T23:16:17.876Z,79.37
2019-03-08T23:18:48.269Z,79.20
2019-03-08T23:21:18.406Z,79.34
2019-03-08T23:23:48.529Z,79.33
2019-03-08T23:26:18.839Z,79.87
2019-03-08T23:29:07.126Z,80.18
2019-03-08T23:31:41.222Z,80.83
2019-03-08T23:34:15.325Z,80.29
2019-03-08T23:36:45.722Z,80.19
2019-03-08T23:39:16.045Z,80.20
2019-03-08T23:41:46.201Z,80.11
2019-03-08T23:44:16.445Z,80.81
2019-03-08T23:46:46.686Z,80.82
2019-03-08T23:49:17.428Z,80.42
2019-03-08T23:51:48.191Z,80.41
2019-03-08T23:54:18.765Z,80.61
2019-03-08T23:56:51.197Z,80.64
2019-03-08T23:59:21.453Z,80.35
